Time;durP1;ratioP1;P1;durP2;ratioP2;P2;SDS_P1;SDS_P2;PMS_P1;PMS_P2;Temp;Humidity;BMP_temperature;BMP_pressure;BME280_temperature;BME280_humidity;BME280_pressure;Samples;Min_cycle;Max_cycle;Signal;HPM_P1;HPM_P2
2021/11/19 00:01:32;;;;;;;;;;;20.70;62.60;;;;;;4993010;28;1445;-71
2021/11/19 00:03:57;;;;;;;;;;;20.70;62.70;;;;;;4993456;28;1335;-68
2021/11/19 00:06:23;;;;;;;;;;;20.70;62.70;;;;;;5004447;28;1346;-69
2021/11/19 00:08:50;;;;;;;;;;;20.70;62.70;;;;;;4993593;28;1108;-70
2021/11/19 00:11:16;;;;;;;;;;;20.70;62.70;;;;;;4993147;28;1294;-70
2021/11/19 00:13:42;;;;;;;;;;;20.70;62.80;;;;;;5011007;28;1351;-71
2021/11/19 00:16:08;;;;;;;;;;;20.70;62.80;;;;;;5000505;28;1284;-70
2021/11/19 00:18:33;;;;;;;;;;;20.60;62.70;;;;;;5011201;28;1965;-71
2021/11/19 00:20:59;;;;;;;;;;;20.60;62.80;;;;;;5008728;28;1911;-70
2021/11/19 00:23:24;;;;;;;;;;;20.70;62.90;;;;;;4993003;28;1279;-71
2021/11/19 00:25:50;;;;;;;;;;;20.70;62.90;;;;;;5004418;28;1415;-71
2021/11/19 00:28:15;;;;;;;;;;;20.70;62.90;;;;;;5012742;28;1327;-70
2021/11/19 00:30:41;;;;;;;;;;;20.60;62.90;;;;;;5000200;28;1140;-71
2021/11/19 00:33:06;;;;;;;;;;;20.60;62.90;;;;;;5009277;28;1368;-71
2021/11/19 00:35:32;;;;;;;;;;;20.60;62.90;;;;;;5000373;28;1364;-70
2021/11/19 00:37:58;;;;;;;;;;;20.60;62.90;;;;;;5009701;28;1910;-70
2021/11/19 00:40:27;;;;;;;;;;;20.60;63.00;;;;;;5013069;28;1381;-70
2021/11/19 00:42:52;;;;;;;;;;;20.60;63.00;;;;;;5011049;28;1199;-70
2021/11/19 00:45:20;;;;;;;;;;;20.60;63.00;;;;;;4999731;28;1408;-70
2021/11/19 00:47:46;;;;;;;;;;;20.60;63.00;;;;;;4992564;28;1341;-70
2021/11/19 00:50:12;;;;;;;;;;;20.60;63.00;;;;;;4987374;28;1261;-71
2021/11/19 00:52:37;;;;;;;;;;;20.60;63.10;;;;;;4993756;28;1329;-71
2021/11/19 00:55:03;;;;;;;;;;;20.60;63.10;;;;;;4993201;28;1276;-70
2021/11/19 00:57:28;;;;;;;;;;;20.50;63.00;;;;;;4993102;28;1359;-70
2021/11/19 00:59:54;;;;;;;;;;;20.60;63.10;;;;;;5001047;28;1968;-70
2021/11/19 01:02:21;;;;;;;;;;;20.60;63.50;;;;;;5008869;28;1286;-70
2021/11/19 01:04:46;;;;;;;;;;;20.60;63.20;;;;;;5000661;28;1330;-70
2021/11/19 01:07:12;;;;;;;;;;;20.50;63.10;;;;;;4992742;28;1366;-70
2021/11/19 01:09:39;;;;;;;;;;;20.50;63.10;;;;;;5002434;28;1397;-70
2021/11/19 01:12:05;;;;;;;;;;;20.50;63.20;;;;;;4993233;28;1313;-70
2021/11/19 01:14:32;;;;;;;;;;;20.50;63.20;;;;;;5001831;28;1254;-71
2021/11/19 01:16:59;;;;;;;;;;;20.50;63.20;;;;;;4993846;28;1386;-71
2021/11/19 01:19:29;;;;;;;;;;;20.50;63.20;;;;;;4992816;28;1899;-71
2021/11/19 01:21:57;;;;;;;;;;;20.50;64.00;;;;;;5004173;28;1743;-71
2021/11/19 01:24:23;;;;;;;;;;;20.50;63.20;;;;;;5003491;28;1271;-71
2021/11/19 01:26:48;;;;;;;;;;;20.50;63.30;;;;;;4993778;28;1349;-71
2021/11/19 01:29:14;;;;;;;;;;;20.50;63.30;;;;;;5004115;28;1360;-71
2021/11/19 01:31:44;;;;;;;;;;;20.50;63.30;;;;;;4997295;28;1381;-72
2021/11/19 01:34:09;;;;;;;;;;;20.50;63.30;;;;;;4996577;28;1498;-70
2021/11/19 01:36:35;;;;;;;;;;;20.50;63.30;;;;;;4996447;28;1426;-71
2021/11/19 01:39:00;;;;;;;;;;;20.50;63.40;;;;;;4996503;28;1965;-71
2021/11/19 01:41:38;;;;;;;;;;;20.50;63.40;;;;;;5012802;28;1305;-72
2021/11/19 01:44:10;;;;;;;;;;;20.50;63.40;;;;;;5014882;28;1399;-71
2021/11/19 01:46:35;;;;;;;;;;;20.50;63.40;;;;;;5005843;28;1274;-71
2021/11/19 01:49:01;;;;;;;;;;;20.50;63.40;;;;;;5011485;28;1097;-71
2021/11/19 01:51:30;;;;;;;;;;;20.40;63.40;;;;;;5015317;28;1131;-71
2021/11/19 01:54:10;;;;;;;;;;;20.40;63.40;;;;;;5001589;28;1065;-71
2021/11/19 01:56:38;;;;;;;;;;;20.40;63.40;;;;;;5003822;28;1273;-72
2021/11/19 01:59:30;;;;;;;;;;;20.40;63.40;;;;;;5011859;28;1902;-72
2021/11/19 02:01:57;;;;;;;;;;;20.40;63.40;;;;;;4971285;28;1539;-72
2021/11/19 02:04:25;;;;;;;;;;;20.40;63.50;;;;;;5006897;28;1354;-71
2021/11/19 02:07:07;;;;;;;;;;;20.40;63.50;;;;;;5008859;28;1322;-70
2021/11/19 02:09:43;;;;;;;;;;;20.40;63.50;;;;;;5004130;28;1355;-70
2021/11/19 02:12:14;;;;;;;;;;;20.40;63.50;;;;;;5011961;28;1432;-70
2021/11/19 02:14:59;;;;;;;;;;;20.40;63.60;;;;;;5015927;28;1320;-71
2021/11/19 02:17:24;;;;;;;;;;;20.40;63.60;;;;;;5015224;28;1370;-71
2021/11/19 02:19:52;;;;;;;;;;;20.40;63.60;;;;;;5014099;28;1902;-71
2021/11/19 02:22:29;;;;;;;;;;;20.40;64.30;;;;;;5013395;28;1336;-70
2021/11/19 02:25:06;;;;;;;;;;;20.40;63.60;;;;;;5001350;28;1286;-70
2021/11/19 02:27:35;;;;;;;;;;;20.40;63.60;;;;;;5002965;28;1669;-70
2021/11/19 02:30:20;;;;;;;;;;;20.40;63.60;;;;;;5008576;28;1312;-71
2021/11/19 02:32:50;;;;;;;;;;;20.40;63.60;;;;;;4994429;28;1424;-71
2021/11/19 02:35:21;;;;;;;;;;;20.40;63.60;;;;;;4986241;28;1298;-71
2021/11/19 02:37:53;;;;;;;;;;;20.40;63.60;;;;;;4998950;28;1258;-70
2021/11/19 02:40:20;;;;;;;;;;;20.40;63.60;;;;;;4986865;28;1364;-70
2021/11/19 02:42:50;;;;;;;;;;;20.40;63.60;;;;;;4996451;28;1374;-71
2021/11/19 02:45:17;;;;;;;;;;;20.40;63.60;;;;;;5002642;28;1352;-71
2021/11/19 02:47:42;;;;;;;;;;;20.40;63.50;;;;;;5012330;28;1399;-71
2021/11/19 02:50:08;;;;;;;;;;;20.40;63.50;;;;;;5014640;28;1364;-71
2021/11/19 02:52:35;;;;;;;;;;;20.40;63.40;;;;;;4993850;28;1073;-71
2021/11/19 02:55:01;;;;;;;;;;;20.50;63.40;;;;;;5005914;28;1323;-71
2021/11/19 02:57:26;;;;;;;;;;;20.50;63.30;;;;;;5014690;28;1375;-71
2021/11/19 02:59:52;;;;;;;;;;;20.50;63.20;;;;;;5001848;28;1902;-71
2021/11/19 03:02:19;;;;;;;;;;;20.50;63.20;;;;;;5012079;28;1373;-70
2021/11/19 03:04:46;;;;;;;;;;;20.50;63.10;;;;;;5001739;28;1274;-71
2021/11/19 03:07:12;;;;;;;;;;;20.50;63.00;;;;;;4993277;28;1393;-71
2021/11/19 03:09:39;;;;;;;;;;;20.60;63.00;;;;;;4993316;28;1189;-71
2021/11/19 03:12:05;;;;;;;;;;;20.60;62.90;;;;;;5011398;28;1415;-71
2021/11/19 03:14:31;;;;;;;;;;;20.60;62.90;;;;;;5001272;28;1312;-71
2021/11/19 03:16:56;;;;;;;;;;;20.60;62.90;;;;;;5013118;28;1356;-70
2021/11/19 03:19:22;;;;;;;;;;;20.60;62.80;;;;;;5013675;28;1902;-70
2021/11/19 03:21:47;;;;;;;;;;;20.60;62.80;;;;;;5004768;28;1346;-70
2021/11/19 03:24:13;;;;;;;;;;;20.60;62.70;;;;;;5005900;28;1381;-71
2021/11/19 03:26:39;;;;;;;;;;;20.70;62.70;;;;;;4994874;28;1244;-70
2021/11/19 03:29:05;;;;;;;;;;;20.70;62.70;;;;;;5012685;28;1288;-71
2021/11/19 03:31:31;;;;;;;;;;;20.60;62.60;;;;;;4993959;28;1313;-70
2021/11/19 03:33:56;;;;;;;;;;;20.60;62.50;;;;;;5006116;28;1096;-70
2021/11/19 03:36:22;;;;;;;;;;;20.70;62.60;;;;;;5013347;28;1315;-70
2021/11/19 03:38:48;;;;;;;;;;;20.70;62.60;;;;;;5014047;28;1895;-70
2021/11/19 03:41:14;;;;;;;;;;;20.60;62.50;;;;;;4998581;28;1307;-71
2021/11/19 03:43:50;;;;;;;;;;;20.70;62.60;;;;;;5002230;28;1056;-70
2021/11/19 03:46:18;;;;;;;;;;;20.70;62.50;;;;;;4994154;28;1353;-70
2021/11/19 03:48:43;;;;;;;;;;;20.70;62.50;;;;;;5005767;28;1277;-70
2021/11/19 03:51:23;;;;;;;;;;;20.70;62.50;;;;;;4992292;28;1744;-71
2021/11/19 03:53:48;;;;;;;;;;;20.70;62.50;;;;;;4994344;28;1453;-71
2021/11/19 03:56:14;;;;;;;;;;;20.70;62.50;;;;;;4994054;28;1358;-70
2021/11/19 03:58:39;;;;;;;;;;;20.70;62.40;;;;;;5005748;28;1956;-71
2021/11/19 04:01:25;;;;;;;;;;;20.70;62.40;;;;;;4999548;28;1152;-71
2021/11/19 04:03:51;;;;;;;;;;;20.70;62.40;;;;;;4996078;28;1441;-71
2021/11/19 04:06:16;;;;;;;;;;;20.70;62.40;;;;;;5002667;28;1356;-70
2021/11/19 04:08:41;;;;;;;;;;;20.70;62.40;;;;;;4997162;28;1363;-71
2021/11/19 04:11:07;;;;;;;;;;;20.70;62.40;;;;;;4993306;28;1080;-71
2021/11/19 04:13:33;;;;;;;;;;;20.70;62.40;;;;;;5005881;28;1093;-71
2021/11/19 04:16:00;;;;;;;;;;;20.70;62.40;;;;;;5002177;28;1379;-71
2021/11/19 04:18:25;;;;;;;;;;;20.70;63.20;;;;;;4995269;28;1969;-71
2021/11/19 04:20:51;;;;;;;;;;;20.70;62.40;;;;;;5001861;28;1290;-71
2021/11/19 04:23:16;;;;;;;;;;;20.70;62.30;;;;;;4995608;28;1317;-71
2021/11/19 04:25:42;;;;;;;;;;;20.70;62.40;;;;;;5002773;28;1026;-70
2021/11/19 04:28:07;;;;;;;;;;;20.70;62.40;;;;;;5039254;23;2103;-70
2021/11/19 04:30:33;;;;;;;;;;;20.70;62.40;;;;;;5031256;28;917;-70
2021/11/19 04:32:59;;;;;;;;;;;20.70;62.30;;;;;;5031900;28;1036;-70
2021/11/19 04:35:24;;;;;;;;;;;20.70;62.30;;;;;;5046704;28;1248;-70
2021/11/19 04:37:50;;;;;;;;;;;20.70;62.30;;;;;;5003437;28;1328;-70
2021/11/19 04:40:16;;;;;;;;;;;20.70;62.30;;;;;;5012627;28;1962;-70
2021/11/19 04:42:41;;;;;;;;;;;20.70;62.30;;;;;;5011049;28;1678;-70
2021/11/19 04:45:07;;;;;;;;;;;20.70;62.30;;;;;;5011401;28;1314;-70
2021/11/19 04:47:33;;;;;;;;;;;20.70;62.30;;;;;;5012595;28;1265;-70
2021/11/19 04:49:58;;;;;;;;;;;20.70;62.30;;;;;;5012218;28;1131;-70
2021/11/19 04:52:24;;;;;;;;;;;20.70;62.30;;;;;;5010887;28;1343;-69
2021/11/19 04:54:49;;;;;;;;;;;20.70;62.30;;;;;;5027787;28;1257;-69
2021/11/19 04:57:15;;;;;;;;;;;20.70;62.30;;;;;;5012707;28;1265;-69
2021/11/19 04:59:41;;;;;;;;;;;20.70;62.30;;;;;;5010905;28;1902;-69
2021/11/19 05:02:08;;;;;;;;;;;20.70;62.20;;;;;;5012162;28;1100;-70
2021/11/19 05:04:34;;;;;;;;;;;20.70;62.20;;;;;;5010761;28;1341;-69
2021/11/19 05:07:00;;;;;;;;;;;20.70;62.20;;;;;;5012671;28;1390;-69
2021/11/19 05:09:29;;;;;;;;;;;20.70;62.20;;;;;;5012430;28;1135;-70
2021/11/19 05:12:03;;;;;;;;;;;20.70;62.20;;;;;;5010639;28;1324;-70
2021/11/19 05:14:29;;;;;;;;;;;20.70;63.00;;;;;;4994738;28;1530;-70
2021/11/19 05:16:54;;;;;;;;;;;20.70;62.20;;;;;;5011254;28;1268;-70
2021/11/19 05:19:20;;;;;;;;;;;20.70;62.20;;;;;;5011414;28;1898;-70
2021/11/19 05:21:46;;;;;;;;;;;20.70;62.20;;;;;;5010243;28;1184;-70
2021/11/19 05:24:12;;;;;;;;;;;20.70;62.20;;;;;;5010874;28;1093;-69
2021/11/19 05:26:38;;;;;;;;;;;20.70;62.20;;;;;;5012070;28;1276;-70
2021/11/19 05:29:03;;;;;;;;;;;20.70;62.20;;;;;;5011571;28;1105;-70
2021/11/19 05:31:29;;;;;;;;;;;20.70;63.00;;;;;;5011694;28;1196;-70
2021/11/19 05:33:54;;;;;;;;;;;20.70;62.20;;;;;;5012068;28;1065;-69
2021/11/19 05:36:20;;;;;;;;;;;20.80;62.30;;;;;;5012187;28;1328;-69
2021/11/19 05:38:45;;;;;;;;;;;20.70;62.20;;;;;;5011203;28;1906;-70
2021/11/19 05:41:11;;;;;;;;;;;20.70;62.20;;;;;;5010204;28;1093;-70
2021/11/19 05:43:37;;;;;;;;;;;20.70;62.20;;;;;;5010647;28;1359;-69
2021/11/19 05:46:03;;;;;;;;;;;20.70;62.20;;;;;;5027584;28;1340;-70
2021/11/19 05:48:28;;;;;;;;;;;20.70;62.90;;;;;;5011107;28;1547;-70
2021/11/19 05:50:54;;;;;;;;;;;20.70;62.20;;;;;;5010759;28;1227;-70
2021/11/19 05:53:20;;;;;;;;;;;20.70;62.20;;;;;;5010954;28;1265;-70
2021/11/19 05:55:46;;;;;;;;;;;20.70;62.20;;;;;;5012287;28;1186;-70
2021/11/19 05:58:12;;;;;;;;;;;20.80;62.20;;;;;;5010928;28;1898;-70
2021/11/19 06:00:39;;;;;;;;;;;20.70;62.20;;;;;;5010882;28;1332;-70
2021/11/19 06:03:04;;;;;;;;;;;20.70;62.20;;;;;;5011506;28;1052;-69
2021/11/19 06:05:30;;;;;;;;;;;20.70;62.20;;;;;;5010984;28;1405;-70
2021/11/19 06:07:55;;;;;;;;;;;20.70;62.20;;;;;;5010577;28;1303;-69
2021/11/19 06:10:24;;;;;;;;;;;20.70;62.20;;;;;;5011896;28;1092;-70
2021/11/19 06:12:51;;;;;;;;;;;20.70;62.20;;;;;;5003566;28;1807;-69
2021/11/19 06:15:21;;;;;;;;;;;20.70;62.10;;;;;;5009962;28;1002;-70
2021/11/19 06:17:48;;;;;;;;;;;20.70;62.20;;;;;;5012422;28;2026;-68
2021/11/19 06:20:16;;;;;;;;;;;20.70;62.20;;;;;;5013099;28;1898;-68
2021/11/19 06:22:43;;;;;;;;;;;20.80;62.20;;;;;;5012815;28;1797;-68
2021/11/19 06:25:10;;;;;;;;;;;20.70;62.20;;;;;;5012513;28;1208;-69
2021/11/19 06:27:35;;;;;;;;;;;20.70;62.10;;;;;;5012484;28;1401;-68
2021/11/19 06:30:01;;;;;;;;;;;20.70;62.20;;;;;;5004068;28;1167;-69
2021/11/19 06:32:26;;;;;;;;;;;20.70;62.20;;;;;;5012340;28;1262;-69
2021/11/19 06:34:53;;;;;;;;;;;20.70;62.10;;;;;;5013147;28;1081;-68
2021/11/19 06:37:18;;;;;;;;;;;20.70;62.20;;;;;;5012826;28;1293;-68
2021/11/19 06:39:44;;;;;;;;;;;20.70;62.10;;;;;;5012598;28;1898;-70
2021/11/19 06:42:10;;;;;;;;;;;20.70;62.20;;;;;;5012875;28;1256;-70
2021/11/19 06:44:35;;;;;;;;;;;20.70;62.20;;;;;;5009972;28;2008;-69
2021/11/19 06:47:01;;;;;;;;;;;20.70;62.20;;;;;;5012723;28;1276;-70
2021/11/19 06:49:26;;;;;;;;;;;20.70;62.20;;;;;;5003325;28;1350;-69
2021/11/19 06:51:52;;;;;;;;;;;20.70;62.20;;;;;;5013888;28;1132;-69
2021/11/19 06:54:17;;;;;;;;;;;20.70;62.20;;;;;;5000083;28;1135;-70
2021/11/19 06:56:43;;;;;;;;;;;20.70;62.20;;;;;;5013428;28;1291;-70
2021/11/19 06:59:08;;;;;;;;;;;20.70;62.20;;;;;;5011910;28;1957;-69
2021/11/19 07:01:34;;;;;;;;;;;20.70;62.20;;;;;;5006375;28;1183;-68
2021/11/19 07:03:59;;;;;;;;;;;20.70;62.20;;;;;;5013290;28;1183;-70
2021/11/19 07:06:25;;;;;;;;;;;20.70;62.20;;;;;;5014469;28;1813;-68
2021/11/19 07:08:50;;;;;;;;;;;20.70;62.20;;;;;;5013050;28;1351;-68
2021/11/19 07:11:17;;;;;;;;;;;20.70;62.20;;;;;;5014244;28;995;-68
2021/11/19 07:13:42;;;;;;;;;;;20.70;62.20;;;;;;5014285;28;1262;-68
2021/11/19 07:16:08;;;;;;;;;;;20.70;62.20;;;;;;5013965;28;1361;-69
2021/11/19 07:18:33;;;;;;;;;;;20.70;62.20;;;;;;5013313;28;1890;-69
2021/11/19 07:20:59;;;;;;;;;;;20.70;62.20;;;;;;5004343;28;1374;-68
2021/11/19 07:23:24;;;;;;;;;;;20.70;62.20;;;;;;5011949;28;1245;-69
2021/11/19 07:25:50;;;;;;;;;;;20.70;62.20;;;;;;5014289;28;1072;-69
2021/11/19 07:28:15;;;;;;;;;;;20.70;62.20;;;;;;5000081;28;1280;-69
2021/11/19 07:30:42;;;;;;;;;;;20.70;62.20;;;;;;5013730;28;989;-69
2021/11/19 07:33:08;;;;;;;;;;;20.70;62.20;;;;;;4999087;28;1145;-68
2021/11/19 07:35:33;;;;;;;;;;;20.70;62.20;;;;;;5013934;28;1135;-68
2021/11/19 07:37:58;;;;;;;;;;;20.70;62.20;;;;;;5013595;28;1392;-69
2021/11/19 07:40:25;;;;;;;;;;;20.80;62.20;;;;;;5013995;28;1956;-68
2021/11/19 07:42:51;;;;;;;;;;;20.80;62.10;;;;;;5012994;28;1245;-68
2021/11/19 07:45:17;;;;;;;;;;;20.90;62.00;;;;;;5013831;28;1296;-68
2021/11/19 07:47:42;;;;;;;;;;;21.00;61.80;;;;;;5012508;28;1324;-68
2021/11/19 07:50:08;;;;;;;;;;;21.00;61.60;;;;;;5013693;28;1249;-69
2021/11/19 07:52:34;;;;;;;;;;;21.10;61.40;;;;;;5011585;28;1267;-69
2021/11/19 07:54:59;;;;;;;;;;;21.20;61.20;;;;;;5013888;28;1293;-69
2021/11/19 07:57:25;;;;;;;;;;;21.20;61.00;;;;;;5013183;28;1339;-68
2021/11/19 07:59:50;;;;;;;;;;;21.30;60.80;;;;;;5012518;28;1906;-68
2021/11/19 08:02:15;;;;;;;;;;;21.40;60.60;;;;;;5011800;28;1123;-69
2021/11/19 08:04:42;;;;;;;;;;;21.40;61.10;;;;;;5013727;28;899;-69
2021/11/19 08:07:07;;;;;;;;;;;21.50;60.20;;;;;;5013326;28;1335;-69
2021/11/19 08:09:32;;;;;;;;;;;21.60;60.10;;;;;;5012347;28;1289;-69
2021/11/19 08:11:58;;;;;;;;;;;21.60;60.00;;;;;;5012229;28;1362;-69
2021/11/19 08:14:24;;;;;;;;;;;21.70;59.80;;;;;;5013431;28;843;-69
2021/11/19 08:16:51;;;;;;;;;;;21.70;59.70;;;;;;5011904;28;1357;-69
2021/11/19 08:19:20;;;;;;;;;;;21.70;59.60;;;;;;5013370;28;1906;-69
2021/11/19 08:21:45;;;;;;;;;;;21.80;59.60;;;;;;5010830;28;1230;-69
2021/11/19 08:24:11;;;;;;;;;;;21.80;59.50;;;;;;5013127;28;1096;-69
2021/11/19 08:26:57;;;;;;;;;;;21.80;59.40;;;;;;5011758;28;1518;-68
2021/11/19 08:29:23;;;;;;;;;;;21.90;59.50;;;;;;5012604;28;1340;-68
2021/11/19 08:31:49;;;;;;;;;;;21.90;59.30;;;;;;5011278;28;1278;-69
2021/11/19 08:34:15;;;;;;;;;;;21.90;59.30;;;;;;5011938;28;1254;-69
2021/11/19 08:36:40;;;;;;;;;;;21.90;59.30;;;;;;5012809;28;1277;-69
2021/11/19 08:39:06;;;;;;;;;;;22.00;59.30;;;;;;4999022;28;1910;-69
2021/11/19 08:41:32;;;;;;;;;;;22.00;59.20;;;;;;5011912;28;1307;-69
2021/11/19 08:43:58;;;;;;;;;;;22.00;59.20;;;;;;5012498;28;1248;-69
2021/11/19 08:46:25;;;;;;;;;;;22.00;59.10;;;;;;5011940;28;1330;-69
2021/11/19 08:48:50;;;;;;;;;;;22.10;59.10;;;;;;5012741;28;1350;-69
2021/11/19 08:51:19;;;;;;;;;;;22.10;59.10;;;;;;5011996;28;1123;-69
2021/11/19 08:53:48;;;;;;;;;;;22.10;59.10;;;;;;5011405;28;1295;-69
2021/11/19 08:56:14;;;;;;;;;;;22.10;59.00;;;;;;5011437;28;1359;-69
2021/11/19 08:58:41;;;;;;;;;;;22.10;59.00;;;;;;5011207;28;1961;-69
2021/11/19 09:01:06;;;;;;;;;;;22.10;59.00;;;;;;5002779;28;1132;-68
2021/11/19 09:03:32;;;;;;;;;;;22.10;59.00;;;;;;5007093;28;1336;-69
2021/11/19 09:05:57;;;;;;;;;;;22.20;59.00;;;;;;5011545;28;1385;-69
2021/11/19 09:08:24;;;;;;;;;;;22.20;58.90;;;;;;5011723;28;1372;-68
2021/11/19 09:10:50;;;;;;;;;;;22.20;58.90;;;;;;5012581;28;1342;-68
2021/11/19 09:13:16;;;;;;;;;;;22.20;58.90;;;;;;5011169;28;1311;-69
2021/11/19 09:15:41;;;;;;;;;;;22.20;58.90;;;;;;5011639;28;1147;-69
2021/11/19 09:18:07;;;;;;;;;;;22.20;58.90;;;;;;5012409;28;1284;-69
2021/11/19 09:20:38;;;;;;;;;;;22.20;58.80;;;;;;5012336;28;2013;-69
2021/11/19 09:23:08;;;;;;;;;;;22.20;58.90;;;;;;5011911;28;1265;-69
2021/11/19 09:25:34;;;;;;;;;;;22.30;58.90;;;;;;5011321;28;1147;-69
2021/11/19 09:28:01;;;;;;;;;;;22.30;58.80;;;;;;5011897;28;1270;-69
2021/11/19 09:30:36;;;;;;;;;;;22.30;58.80;;;;;;5000882;28;1251;-69
2021/11/19 09:33:02;;;;;;;;;;;22.30;58.80;;;;;;5010809;28;1249;-69
2021/11/19 09:35:28;;;;;;;;;;;22.30;58.80;;;;;;5011510;28;1293;-69
2021/11/19 09:37:54;;;;;;;;;;;22.30;58.80;;;;;;5010943;28;1347;-69
2021/11/19 09:40:22;;;;;;;;;;;22.30;58.90;;;;;;5011141;28;1906;-69
2021/11/19 09:43:06;;;;;;;;;;;22.30;58.80;;;;;;5010428;28;1202;-69
2021/11/19 09:45:50;;;;;;;;;;;22.30;58.90;;;;;;5012456;28;1134;-68
2021/11/19 09:48:24;;;;;;;;;;;22.30;58.80;;;;;;5012395;28;1289;-68
2021/11/19 09:51:08;;;;;;;;;;;22.30;58.80;;;;;;5013930;28;1314;-69
2021/11/19 09:53:50;;;;;;;;;;;22.30;58.80;;;;;;5015983;28;1282;-68
2021/11/19 09:56:35;;;;;;;;;;;22.30;58.80;;;;;;5014716;28;1383;-68
2021/11/19 09:59:03;;;;;;;;;;;22.40;59.40;;;;;;5016061;28;1970;-68
2021/11/19 10:01:47;;;;;;;;;;;22.30;58.70;;;;;;5015406;28;1041;-69
2021/11/19 10:04:16;;;;;;;;;;;22.40;58.80;;;;;;5015660;28;1313;-68
2021/11/19 10:06:54;;;;;;;;;;;22.40;58.80;;;;;;5030815;28;1379;-68
2021/11/19 10:09:21;;;;;;;;;;;22.40;58.70;;;;;;4998092;28;2725;-69
2021/11/19 10:11:56;;;;;;;;;;;22.40;58.70;;;;;;5015098;28;1331;-70
2021/11/19 10:14:30;;;;;;;;;;;22.40;58.60;;;;;;5014631;28;1838;-70
2021/11/19 10:17:05;;;;;;;;;;;22.40;58.70;;;;;;5013795;28;1364;-68
2021/11/19 10:19:31;;;;;;;;;;;22.40;58.60;;;;;;5006566;28;1906;-68
2021/11/19 10:22:03;;;;;;;;;;;22.40;58.60;;;;;;5010106;28;1207;-68
2021/11/19 10:24:46;;;;;;;;;;;22.40;58.60;;;;;;5013394;28;1391;-68
2021/11/19 10:29:48;;;;;;;;;;;22.40;58.60;;;;;;5029760;28;1503;-71
2021/11/19 10:32:16;;;;;;;;;;;22.40;58.60;;;;;;5033567;28;1428;-70
2021/11/19 10:35:00;;;;;;;;;;;22.40;58.60;;;;;;5014406;28;1132;-71
2021/11/19 10:37:31;;;;;;;;;;;22.40;58.60;;;;;;5014627;28;1332;-71
2021/11/19 10:39:59;;;;;;;;;;;22.40;58.60;;;;;;5035247;28;1977;-69
2021/11/19 10:42:40;;;;;;;;;;;22.40;58.60;;;;;;5033821;28;1265;-71
2021/11/19 10:45:25;;;;;;;;;;;22.40;58.60;;;;;;5033473;28;1379;-71
2021/11/19 10:47:53;;;;;;;;;;;22.40;58.60;;;;;;5033929;28;1392;-71
2021/11/19 10:50:43;;;;;;;;;;;22.40;58.60;;;;;;5032637;28;1206;-71
2021/11/19 10:53:27;;;;;;;;;;;22.40;58.60;;;;;;5034015;28;1248;-71
2021/11/19 10:56:07;;;;;;;;;;;22.40;58.60;;;;;;5033553;28;1321;-71
2021/11/19 10:58:42;;;;;;;;;;;22.40;58.60;;;;;;5031551;28;2954;-71
2021/11/19 11:01:17;;;;;;;;;;;22.40;58.60;;;;;;5031240;28;1071;-71
2021/11/19 11:03:58;;;;;;;;;;;22.40;58.60;;;;;;5022513;28;1307;-70
2021/11/19 11:06:54;;;;;;;;;;;22.40;58.60;;;;;;5027428;28;1101;-70
2021/11/19 11:09:39;;;;;;;;;;;22.40;58.60;;;;;;5019540;28;1346;-71
2021/11/19 11:12:08;;;;;;;;;;;22.40;58.60;;;;;;5024489;28;1771;-69
2021/11/19 11:14:34;;;;;;;;;;;22.50;58.70;;;;;;5029576;28;1072;-71
2021/11/19 11:17:18;;;;;;;;;;;22.40;58.60;;;;;;5025507;28;1379;-71
2021/11/19 11:19:44;;;;;;;;;;;22.50;58.70;;;;;;5018937;28;1964;-71
2021/11/19 11:22:12;;;;;;;;;;;22.50;58.60;;;;;;5039825;28;1215;-71
2021/11/19 11:24:45;;;;;;;;;;;22.40;58.60;;;;;;5027037;28;1281;-71
2021/11/19 11:27:11;;;;;;;;;;;22.50;58.60;;;;;;5022530;28;1367;-70
2021/11/19 11:29:36;;;;;;;;;;;22.50;58.60;;;;;;5026794;28;1222;-71
2021/11/19 11:32:01;;;;;;;;;;;22.40;58.60;;;;;;5012535;28;1287;-71
2021/11/19 11:34:30;;;;;;;;;;;22.50;58.60;;;;;;5028760;28;1590;-70
2021/11/19 11:37:04;;;;;;;;;;;22.50;58.60;;;;;;5013320;28;1088;-71
2021/11/19 11:39:41;;;;;;;;;;;22.50;58.60;;;;;;5013110;28;1956;-70
2021/11/19 11:42:09;;;;;;;;;;;22.50;58.60;;;;;;5027057;28;1249;-71
2021/11/19 11:44:45;;;;;;;;;;;22.50;58.60;;;;;;5014165;28;1339;-71
2021/11/19 11:47:12;;;;;;;;;;;22.50;58.60;;;;;;5013524;28;1279;-71
2021/11/19 11:49:46;;;;;;;;;;;22.50;58.60;;;;;;5029189;28;1364;-71
2021/11/19 11:52:18;;;;;;;;;;;22.50;58.60;;;;;;5026849;28;1068;-72
2021/11/19 11:54:58;;;;;;;;;;;22.50;58.60;;;;;;5028823;28;1278;-71
2021/11/19 11:57:32;;;;;;;;;;;22.50;58.60;;;;;;5025917;28;1284;-71
2021/11/19 12:00:17;;;;;;;;;;;22.50;58.60;;;;;;5024207;28;1902;-69
2021/11/19 12:03:06;;;;;;;;;;;22.50;58.60;;;;;;5031286;28;1275;-70
2021/11/19 12:05:32;;;;;;;;;;;22.50;58.60;;;;;;5026938;28;1392;-71
2021/11/19 12:08:16;;;;;;;;;;;22.50;58.60;;;;;;5031753;28;1282;-71
2021/11/19 12:10:47;;;;;;;;;;;22.50;58.60;;;;;;5031942;28;1281;-69
2021/11/19 12:13:17;;;;;;;;;;;22.50;58.60;;;;;;5019991;28;1671;-70
2021/11/19 12:16:05;;;;;;;;;;;22.50;58.60;;;;;;5028874;28;1044;-69
2021/11/19 12:18:44;;;;;;;;;;;22.50;58.70;;;;;;5024187;28;1977;-69
2021/11/19 12:21:19;;;;;;;;;;;22.50;58.70;;;;;;5022753;28;1372;-70
2021/11/19 12:24:03;;;;;;;;;;;22.50;58.70;;;;;;5011430;28;1331;-70
2021/11/19 12:26:44;;;;;;;;;;;22.50;58.70;;;;;;5010824;28;1303;-70
2021/11/19 12:29:11;;;;;;;;;;;22.50;58.70;;;;;;5034611;28;1252;-69
2021/11/19 12:31:41;;;;;;;;;;;22.50;58.70;;;;;;5009898;28;1316;-70
2021/11/19 12:34:13;;;;;;;;;;;22.50;58.70;;;;;;5024521;28;1190;-70
2021/11/19 12:36:43;;;;;;;;;;;22.50;58.70;;;;;;5028979;28;2489;-69
2021/11/19 12:39:09;;;;;;;;;;;22.50;58.70;;;;;;5016457;28;1907;-68
2021/11/19 12:41:38;;;;;;;;;;;22.50;58.70;;;;;;5022413;28;1595;-70
2021/11/19 12:44:13;;;;;;;;;;;22.50;58.70;;;;;;5046095;28;1332;-69
2021/11/19 12:46:38;;;;;;;;;;;22.50;58.70;;;;;;5021105;28;2171;-69
2021/11/19 12:49:09;;;;;;;;;;;22.40;58.70;;;;;;5013771;28;1393;-70
2021/11/19 12:51:39;;;;;;;;;;;22.50;58.80;;;;;;5024226;28;2135;-69
2021/11/19 12:54:17;;;;;;;;;;;22.50;58.80;;;;;;5012677;28;1127;-69
2021/11/19 12:56:54;;;;;;;;;;;22.50;58.80;;;;;;5024188;28;1529;-69
2021/11/19 12:59:20;;;;;;;;;;;22.50;58.80;;;;;;5010820;28;1902;-71
2021/11/19 13:02:06;;;;;;;;;;;22.50;58.80;;;;;;5025161;28;1360;-70
2021/11/19 13:04:35;;;;;;;;;;;22.40;58.80;;;;;;5010176;28;1243;-70
2021/11/19 13:07:03;;;;;;;;;;;22.40;58.80;;;;;;5026303;28;1266;-71
2021/11/19 13:09:37;;;;;;;;;;;22.40;58.90;;;;;;5026354;28;1341;-71
2021/11/19 13:12:07;;;;;;;;;;;22.40;58.90;;;;;;5009701;28;1249;-69
2021/11/19 13:14:32;;;;;;;;;;;22.40;59.00;;;;;;5026192;28;1068;-71
2021/11/19 13:17:15;;;;;;;;;;;22.40;59.00;;;;;;5011917;28;1338;-71
2021/11/19 13:19:41;;;;;;;;;;;22.40;59.10;;;;;;5010493;28;1898;-71
2021/11/19 13:22:10;;;;;;;;;;;22.30;59.10;;;;;;5022571;28;1416;-70
2021/11/19 13:24:46;;;;;;;;;;;22.30;59.10;;;;;;5012304;28;1131;-70
2021/11/19 13:27:11;;;;;;;;;;;22.30;59.20;;;;;;5016545;28;1343;-71
2021/11/19 13:29:37;;;;;;;;;;;22.30;59.20;;;;;;5041729;28;1347;-70
2021/11/19 13:32:18;;;;;;;;;;;22.30;59.20;;;;;;5015704;28;1328;-71
2021/11/19 13:34:57;;;;;;;;;;;22.30;59.30;;;;;;5015907;28;1248;-70
2021/11/19 13:37:22;;;;;;;;;;;22.30;59.30;;;;;;5025896;28;1508;-70
2021/11/19 13:39:49;;;;;;;;;;;22.20;59.30;;;;;;5014638;28;1910;-71
2021/11/19 13:42:14;;;;;;;;;;;22.20;59.30;;;;;;5043103;28;1246;-71
2021/11/19 13:44:59;;;;;;;;;;;22.20;59.40;;;;;;5034584;28;1474;-71
2021/11/19 13:47:26;;;;;;;;;;;22.20;59.40;;;;;;5034139;28;1393;-70
2021/11/19 13:50:00;;;;;;;;;;;22.20;59.50;;;;;;5025627;28;1123;-70
2021/11/19 13:52:27;;;;;;;;;;;22.20;59.40;;;;;;5029713;28;1088;-70
2021/11/19 13:55:15;;;;;;;;;;;22.20;59.50;;;;;;5022872;28;1275;-69
2021/11/19 13:57:42;;;;;;;;;;;22.20;59.50;;;;;;5020223;28;1369;-69
2021/11/19 14:00:18;;;;;;;;;;;22.20;59.60;;;;;;5033593;28;1875;-69
2021/11/19 14:02:43;;;;;;;;;;;22.10;59.50;;;;;;5032889;28;1367;-70
2021/11/19 14:05:19;;;;;;;;;;;22.10;59.60;;;;;;5034407;28;1142;-69
2021/11/19 14:07:47;;;;;;;;;;;22.10;59.60;;;;;;5034685;28;1292;-69
2021/11/19 14:10:23;;;;;;;;;;;22.10;59.60;;;;;;5034164;28;1060;-70
2021/11/19 14:12:51;;;;;;;;;;;22.10;59.70;;;;;;5030425;28;1867;-70
2021/11/19 14:15:24;;;;;;;;;;;22.10;59.70;;;;;;5035275;28;1252;-69
2021/11/19 14:17:52;;;;;;;;;;;22.10;59.70;;;;;;5041623;28;1271;-67
2021/11/19 14:23:06;;;;;;;;;;;22.10;59.70;;;;;;5018492;28;1056;-69
2021/11/19 14:25:31;;;;;;;;;;;22.00;59.80;;;;;;5029803;28;1339;-69
2021/11/19 14:27:58;;;;;;;;;;;22.00;59.80;;;;;;5029219;28;1373;-69
2021/11/19 14:30:29;;;;;;;;;;;22.00;59.80;;;;;;5040058;28;1161;-69
2021/11/19 14:33:05;;;;;;;;;;;22.00;59.80;;;;;;5028819;28;1269;-68
2021/11/19 14:35:40;;;;;;;;;;;22.00;60.10;;;;;;5034128;28;1249;-69
2021/11/19 14:38:07;;;;;;;;;;;22.00;60.20;;;;;;5032032;28;1303;-69
2021/11/19 14:40:50;;;;;;;;;;;21.90;60.40;;;;;;5032212;28;1898;-69
2021/11/19 14:43:16;;;;;;;;;;;21.90;60.10;;;;;;5014583;28;1345;-69
2021/11/19 14:45:45;;;;;;;;;;;21.90;60.20;;;;;;5029912;28;1365;-69
2021/11/19 14:48:34;;;;;;;;;;;21.90;60.20;;;;;;5028879;28;1683;-69